logo tempoitalia

Diretta Meteo Zahedan, Iranlunedì 31 agosto ore 08:30

Mappa
Sereno 31 °C Sereno 24 Ore: T.min 19 T.max 36
Ponente Nord Km/h 3.7 Punto di rugiada: 3 °C Umidità: 16% Visibilità: 10 Km
Il sole sorge alle: 05:03 Il sole tramonta alle: 17:50
31 Agosto 2026 08:30 tempo osservato: Sereno Sereno 31 16 1013 vento: Nord N 3.7
31 Agosto 2026 08:00 tempo osservato: Sereno Sereno 29 18 1013 vento: Nord N 3.7
31 Agosto 2026 07:30 tempo osservato: Sereno Sereno 28 17 1013 vento: Nord N 3.7
31 Agosto 2026 07:00 tempo osservato: Sereno Sereno 27 17 1014 vento: Nord N 1.8
31 Agosto 2026 06:30 tempo osservato: Sereno Sereno 24 17 1014 vento: Nord N 5.5
31 Agosto 2026 05:30 tempo osservato: Sereno Sereno 20 20 1013 vento: Nord N 5.5
31 Agosto 2026 04:30 tempo osservato: Sereno Sereno 19 22 1013 vento: Nord S/SO 7.4
31 Agosto 2026 03:30 tempo osservato: Sereno Sereno 20 20 1013 vento: Nord S/SO 9.3
31 Agosto 2026 02:30 tempo osservato: Sereno Sereno 22 19 1013 vento: Nord N 5.5
31 Agosto 2026 01:30 tempo osservato: Sereno Sereno 22 18 1013 vento: Nord S 7.4
31 Agosto 2026 00:30 tempo osservato: Sereno Sereno 22 18 1013 vento: Nord S 7.4
30 Agosto 2026 23:30 tempo osservato: Sereno Sereno 23 17 1013 vento: Nord N 5.5
30 Agosto 2026 22:30 tempo osservato: Sereno Sereno 28 15 1013 vento: Nord N 3.7
30 Agosto 2026 21:30 tempo osservato: Sereno Sereno 29 15 1013 vento: Nord N 3.7
30 Agosto 2026 20:30 tempo osservato: Sereno Sereno 31 13 1013 vento: Nord N 5.5
30 Agosto 2026 19:30 tempo osservato: Sereno Sereno 31 13 1012 vento: Nord N 5.5
30 Agosto 2026 18:30 tempo osservato: Sereno Sereno 33 12 1012 vento: Nord NE 9.3
30 Agosto 2026 17:30 tempo osservato: Sereno Sereno 34 10 1011 vento: Nord N/NE 11.1
30 Agosto 2026 16:30 tempo osservato: Sereno Sereno 36 9 1011 vento: Nord N 9.3
30 Agosto 2026 15:30 tempo osservato: Sereno Sereno 36 10 1011 vento: Nord N 11.1
30 Agosto 2026 15:00 tempo osservato: Sereno Sereno 36 9 1011 vento: Nord N/NE 11.1
30 Agosto 2026 14:30 tempo osservato: Sereno Sereno 36 10 1011 vento: Nord NO 18.5
30 Agosto 2026 14:00 tempo osservato: Sereno Sereno 36 11 1011 vento: Nord NO 11.1
30 Agosto 2026 13:30 tempo osservato: Sereno Sereno 35 10 1011 vento: Nord N/NE 13
30 Agosto 2026 13:00 tempo osservato: Sereno Sereno 35 10 1012 vento: Nord NO 18.5
30 Agosto 2026 12:30 tempo osservato: Sereno Sereno 35 10 1012 vento: Nord N/NO 20.3
30 Agosto 2026 12:00 tempo osservato: Sereno Sereno 35 10 1013 vento: Nord N 16.7
30 Agosto 2026 11:30 tempo osservato: Sereno Sereno 34 11 1013 vento: Nord N 18.5
30 Agosto 2026 11:00 tempo osservato: Sereno Sereno 34 11 1013 vento: Nord N/NO 14.8
30 Agosto 2026 10:30 tempo osservato: Sereno Sereno 34 12 1013 vento: Nord N 13
30 Agosto 2026 10:00 tempo osservato: Sereno Sereno 33 13 1014 vento: Nord NO 24
30 Agosto 2026 09:30 tempo osservato: Sereno Sereno 32 13 1014 vento: Nord NO 13